Medical Springs, Oregon
Current Conditions -  °F | °C
As of 6:53 AM on Friday 19 Dec 2014 (Local Time) from KBKE Reporting Station
Overcast Overcast  
Wind Chill: 28°   Ceiling: 2200
Heat Index: 37°   Visibility: 10mi
Dew Point: 34°   Wind: 16mph
Humidity: 89%   Direction: 80°E
Pressure: 29.96"   Gusts: NA
Location:  44.7595°N, 117.716°W
Report Text: KBKE 191453Z AUTO 08014KT 10SM OVC022 03/01 A2996 RMK AO2 RAE28 SLP161 P0000 60002 T00280011 58003
Loading
Personal Weather Stations






























Interactive Weather Map New forecast layout! Learn more

10-Day Weather Forecast

Advertisements
Track Severe Weather on mobile